sensor_id;sensor_type;location;lat;lon;timestamp;P1;durP1;ratioP1;P2;durP2;ratioP2
2564;SDS011;1292;48.020;7.822;2023-04-08T05:47:11;5.57;;;4.20;;
2564;SDS011;1292;48.020;7.822;2023-04-08T05:49:38;4.50;;;4.10;;
2564;SDS011;1292;48.020;7.822;2023-04-08T05:52:05;3.83;;;3.53;;
2564;SDS011;1292;48.020;7.822;2023-04-08T05:54:32;4.93;;;4.37;;
2564;SDS011;1292;48.020;7.822;2023-04-08T05:56:59;4.20;;;3.90;;
2564;SDS011;1292;48.020;7.822;2023-04-08T05:59:26;6.40;;;5.10;;
2564;SDS011;1292;48.020;7.822;2023-04-08T06:01:53;6.43;;;5.83;;
2564;SDS011;1292;48.020;7.822;2023-04-08T06:04:22;8.37;;;5.77;;
2564;SDS011;1292;48.020;7.822;2023-04-08T06:06:49;7.30;;;5.63;;
2564;SDS011;1292;48.020;7.822;2023-04-08T06:09:15;6.10;;;5.63;;
2564;SDS011;1292;48.020;7.822;2023-04-08T06:11:42;7.00;;;5.77;;
2564;SDS011;1292;48.020;7.822;2023-04-08T06:14:11;7.70;;;6.10;;
2564;SDS011;1292;48.020;7.822;2023-04-08T06:16:38;6.60;;;6.00;;
2564;SDS011;1292;48.020;7.822;2023-04-08T06:19:04;7.07;;;6.23;;
2564;SDS011;1292;48.020;7.822;2023-04-08T06:21:33;6.07;;;5.47;;
2564;SDS011;1292;48.020;7.822;2023-04-08T06:24:00;6.50;;;6.00;;
2564;SDS011;1292;48.020;7.822;2023-04-08T06:26:27;8.53;;;6.30;;
2564;SDS011;1292;48.020;7.822;2023-04-08T06:28:54;8.37;;;6.63;;
2564;SDS011;1292;48.020;7.822;2023-04-08T06:31:21;8.00;;;7.20;;
2564;SDS011;1292;48.020;7.822;2023-04-08T06:33:48;7.80;;;7.03;;
2564;SDS011;1292;48.020;7.822;2023-04-08T06:36:16;8.33;;;7.53;;
2564;SDS011;1292;48.020;7.822;2023-04-08T06:38:44;7.87;;;7.07;;
2564;SDS011;1292;48.020;7.822;2023-04-08T06:41:11;10.43;;;9.10;;
2564;SDS011;1292;48.020;7.822;2023-04-08T06:43:38;8.53;;;7.63;;
2564;SDS011;1292;48.020;7.822;2023-04-08T06:46:05;7.80;;;6.97;;
2564;SDS011;1292;48.020;7.822;2023-04-08T06:48:32;8.00;;;7.20;;
2564;SDS011;1292;48.020;7.822;2023-04-08T06:50:59;7.97;;;6.97;;
2564;SDS011;1292;48.020;7.822;2023-04-08T06:53:26;8.47;;;7.57;;
2564;SDS011;1292;48.020;7.822;2023-04-08T06:55:56;8.63;;;7.83;;
2564;SDS011;1292;48.020;7.822;2023-04-08T06:58:23;8.87;;;7.97;;
2564;SDS011;1292;48.020;7.822;2023-04-08T07:00:50;9.63;;;7.70;;
2564;SDS011;1292;48.020;7.822;2023-04-08T07:03:18;7.27;;;6.57;;
2564;SDS011;1292;48.020;7.822;2023-04-08T07:05:45;14.70;;;9.10;;
2564;SDS011;1292;48.020;7.822;2023-04-08T07:08:12;8.60;;;7.80;;
2564;SDS011;1292;48.020;7.822;2023-04-08T07:10:39;9.67;;;8.03;;
2564;SDS011;1292;48.020;7.822;2023-04-08T07:13:07;8.13;;;7.33;;
2564;SDS011;1292;48.020;7.822;2023-04-08T07:15:34;7.67;;;6.97;;
2564;SDS011;1292;48.020;7.822;2023-04-08T07:18:01;8.30;;;7.20;;
2564;SDS011;1292;48.020;7.822;2023-04-08T07:20:28;9.20;;;7.80;;
2564;SDS011;1292;48.020;7.822;2023-04-08T07:22:55;8.87;;;7.03;;
2564;SDS011;1292;48.020;7.822;2023-04-08T07:25:22;9.10;;;8.10;;
2564;SDS011;1292;48.020;7.822;2023-04-08T07:27:49;7.90;;;6.90;;
2564;SDS011;1292;48.020;7.822;2023-04-08T07:30:18;8.43;;;7.63;;
2564;SDS011;1292;48.020;7.822;2023-04-08T07:32:46;8.27;;;7.47;;
2564;SDS011;1292;48.020;7.822;2023-04-08T07:35:12;6.90;;;6.20;;
2564;SDS011;1292;48.020;7.822;2023-04-08T07:37:43;6.93;;;6.23;;
2564;SDS011;1292;48.020;7.822;2023-04-08T07:40:10;9.67;;;7.77;;
2564;SDS011;1292;48.020;7.822;2023-04-08T07:42:37;6.53;;;5.93;;
2564;SDS011;1292;48.020;7.822;2023-04-08T07:45:04;6.70;;;6.10;;
2564;SDS011;1292;48.020;7.822;2023-04-08T07:47:33;7.80;;;6.17;;
2564;SDS011;1292;48.020;7.822;2023-04-08T07:50:00;6.93;;;6.27;;
2564;SDS011;1292;48.020;7.822;2023-04-08T07:52:28;7.30;;;6.70;;
2564;SDS011;1292;48.020;7.822;2023-04-08T07:54:55;6.60;;;5.90;;
2564;SDS011;1292;48.020;7.822;2023-04-08T07:57:22;6.57;;;5.87;;
2564;SDS011;1292;48.020;7.822;2023-04-08T07:59:49;7.23;;;6.53;;
2564;SDS011;1292;48.020;7.822;2023-04-08T08:02:16;8.40;;;7.60;;
2564;SDS011;1292;48.020;7.822;2023-04-08T08:04:44;6.73;;;6.07;;
2564;SDS011;1292;48.020;7.822;2023-04-08T08:07:10;7.10;;;6.50;;
2564;SDS011;1292;48.020;7.822;2023-04-08T08:09:37;8.33;;;6.53;;
2564;SDS011;1292;48.020;7.822;2023-04-08T08:12:04;7.87;;;7.00;;
2564;SDS011;1292;48.020;7.822;2023-04-08T08:14:31;7.60;;;6.80;;
2564;SDS011;1292;48.020;7.822;2023-04-08T08:16:57;7.87;;;7.03;;
2564;SDS011;1292;48.020;7.822;2023-04-08T08:19:25;7.53;;;6.83;;
2564;SDS011;1292;48.020;7.822;2023-04-08T08:21:53;8.93;;;6.33;;
2564;SDS011;1292;48.020;7.822;2023-04-08T08:24:21;5.53;;;5.00;;
2564;SDS011;1292;48.020;7.822;2023-04-08T08:26:47;6.87;;;6.27;;
2564;SDS011;1292;48.020;7.822;2023-04-08T08:29:14;8.33;;;6.17;;
2564;SDS011;1292;48.020;7.822;2023-04-08T08:31:41;9.17;;;7.13;;
2564;SDS011;1292;48.020;7.822;2023-04-08T08:34:08;6.40;;;5.80;;
2564;SDS011;1292;48.020;7.822;2023-04-08T08:36:35;7.53;;;6.80;;
2564;SDS011;1292;48.020;7.822;2023-04-08T08:39:03;7.47;;;5.73;;
2564;SDS011;1292;48.020;7.822;2023-04-08T08:41:32;7.30;;;5.80;;
2564;SDS011;1292;48.020;7.822;2023-04-08T08:44:00;6.60;;;5.93;;
2564;SDS011;1292;48.020;7.822;2023-04-08T08:46:28;7.10;;;6.40;;
2564;SDS011;1292;48.020;7.822;2023-04-08T08:48:55;6.40;;;5.43;;
2564;SDS011;1292;48.020;7.822;2023-04-08T08:51:22;6.70;;;6.00;;
2564;SDS011;1292;48.020;7.822;2023-04-08T08:53:50;6.50;;;5.90;;
2564;SDS011;1292;48.020;7.822;2023-04-08T08:56:18;7.00;;;6.30;;
2564;SDS011;1292;48.020;7.822;2023-04-08T08:58:46;10.97;;;6.40;;
2564;SDS011;1292;48.020;7.822;2023-04-08T09:01:31;9.10;;;7.50;;
2564;SDS011;1292;48.020;7.822;2023-04-08T09:04:06;8.90;;;6.70;;
2564;SDS011;1292;48.020;7.822;2023-04-08T09:06:34;6.60;;;6.00;;
2564;SDS011;1292;48.020;7.822;2023-04-08T09:09:01;7.37;;;6.17;;
2564;SDS011;1292;48.020;7.822;2023-04-08T09:11:31;6.93;;;6.20;;
2564;SDS011;1292;48.020;7.822;2023-04-08T09:13:58;8.50;;;6.20;;
2564;SDS011;1292;48.020;7.822;2023-04-08T09:16:24;7.20;;;6.20;;
2564;SDS011;1292;48.020;7.822;2023-04-08T09:18:52;7.23;;;6.37;;
2564;SDS011;1292;48.020;7.822;2023-04-08T09:21:21;8.10;;;7.10;;
2564;SDS011;1292;48.020;7.822;2023-04-08T09:23:51;6.67;;;6.07;;
2564;SDS011;1292;48.020;7.822;2023-04-08T09:26:20;6.77;;;6.07;;
2564;SDS011;1292;48.020;7.822;2023-04-08T09:28:59;6.80;;;5.90;;
2564;SDS011;1292;48.020;7.822;2023-04-08T09:31:28;6.30;;;5.70;;
2564;SDS011;1292;48.020;7.822;2023-04-08T09:33:56;6.80;;;5.30;;
2564;SDS011;1292;48.020;7.822;2023-04-08T09:36:24;7.63;;;6.20;;
2564;SDS011;1292;48.020;7.822;2023-04-08T09:38:52;7.47;;;6.40;;
2564;SDS011;1292;48.020;7.822;2023-04-08T09:41:20;6.57;;;5.87;;
2564;SDS011;1292;48.020;7.822;2023-04-08T09:43:48;8.87;;;7.27;;
2564;SDS011;1292;48.020;7.822;2023-04-08T09:46:19;8.13;;;5.90;;
2564;SDS011;1292;48.020;7.822;2023-04-08T09:48:54;6.63;;;5.97;;
2564;SDS011;1292;48.020;7.822;2023-04-08T09:51:26;7.33;;;5.67;;
2564;SDS011;1292;48.020;7.822;2023-04-08T09:54:00;8.90;;;6.50;;
2564;SDS011;1292;48.020;7.822;2023-04-08T09:56:34;6.50;;;5.80;;
2564;SDS011;1292;48.020;7.822;2023-04-08T09:59:08;7.37;;;5.93;;
2564;SDS011;1292;48.020;7.822;2023-04-08T10:01:43;9.33;;;6.70;;
2564;SDS011;1292;48.020;7.822;2023-04-08T10:04:15;8.33;;;7.53;;
2564;SDS011;1292;48.020;7.822;2023-04-08T10:06:45;10.37;;;7.73;;
2564;SDS011;1292;48.020;7.822;2023-04-08T10:09:17;8.00;;;6.80;;
2564;SDS011;1292;48.020;7.822;2023-04-08T10:11:45;8.70;;;6.80;;
2564;SDS011;1292;48.020;7.822;2023-04-08T10:14:12;7.63;;;6.33;;
2564;SDS011;1292;48.020;7.822;2023-04-08T10:16:39;9.40;;;7.13;;
2564;SDS011;1292;48.020;7.822;2023-04-08T10:19:34;6.60;;;5.90;;
2564;SDS011;1292;48.020;7.822;2023-04-08T10:22:03;10.47;;;8.03;;
2564;SDS011;1292;48.020;7.822;2023-04-08T10:27:54;9.60;;;7.73;;
2564;SDS011;1292;48.020;7.822;2023-04-08T10:30:42;8.87;;;7.20;;
2564;SDS011;1292;48.020;7.822;2023-04-08T10:33:10;10.97;;;7.83;;
2564;SDS011;1292;48.020;7.822;2023-04-08T10:35:41;11.90;;;8.63;;
2564;SDS011;1292;48.020;7.822;2023-04-08T10:38:12;11.10;;;9.10;;
2564;SDS011;1292;48.020;7.822;2023-04-08T10:40:40;13.07;;;7.80;;
2564;SDS011;1292;48.020;7.822;2023-04-08T10:43:09;9.97;;;8.57;;
2564;SDS011;1292;48.020;7.822;2023-04-08T10:45:36;11.53;;;8.97;;
2564;SDS011;1292;48.020;7.822;2023-04-08T10:48:13;12.70;;;8.50;;
2564;SDS011;1292;48.020;7.822;2023-04-08T10:50:43;11.67;;;9.23;;
2564;SDS011;1292;48.020;7.822;2023-04-08T10:53:22;13.90;;;9.40;;
2564;SDS011;1292;48.020;7.822;2023-04-08T10:55:50;9.30;;;7.67;;
2564;SDS011;1292;48.020;7.822;2023-04-08T10:58:17;11.67;;;8.97;;
2564;SDS011;1292;48.020;7.822;2023-04-08T11:00:44;10.30;;;8.10;;
2564;SDS011;1292;48.020;7.822;2023-04-08T11:03:11;10.70;;;8.80;;
2564;SDS011;1292;48.020;7.822;2023-04-08T11:05:38;12.60;;;9.10;;
2564;SDS011;1292;48.020;7.822;2023-04-08T11:08:06;10.77;;;7.30;;
2564;SDS011;1292;48.020;7.822;2023-04-08T11:10:35;8.40;;;7.27;;
2564;SDS011;1292;48.020;7.822;2023-04-08T11:13:05;8.47;;;7.20;;
2564;SDS011;1292;48.020;7.822;2023-04-08T11:15:34;8.20;;;6.93;;
2564;SDS011;1292;48.020;7.822;2023-04-08T11:18:01;8.90;;;8.00;;
2564;SDS011;1292;48.020;7.822;2023-04-08T11:20:30;8.70;;;7.50;;
2564;SDS011;1292;48.020;7.822;2023-04-08T11:22:58;7.60;;;6.80;;
2564;SDS011;1292;48.020;7.822;2023-04-08T11:25:26;9.43;;;6.97;;
2564;SDS011;1292;48.020;7.822;2023-04-08T11:27:54;7.67;;;6.27;;
2564;SDS011;1292;48.020;7.822;2023-04-08T11:30:21;7.90;;;7.00;;
2564;SDS011;1292;48.020;7.822;2023-04-08T11:32:48;9.43;;;8.37;;
2564;SDS011;1292;48.020;7.822;2023-04-08T11:35:16;7.37;;;6.60;;
2564;SDS011;1292;48.020;7.822;2023-04-08T11:37:43;8.20;;;6.70;;
2564;SDS011;1292;48.020;7.822;2023-04-08T11:40:11;7.43;;;6.63;;
2564;SDS011;1292;48.020;7.822;2023-04-08T11:42:40;9.07;;;7.43;;
2564;SDS011;1292;48.020;7.822;2023-04-08T11:45:10;8.50;;;7.23;;
2564;SDS011;1292;48.020;7.822;2023-04-08T11:47:37;8.30;;;7.07;;
2564;SDS011;1292;48.020;7.822;2023-04-08T11:50:05;7.87;;;6.67;;
2564;SDS011;1292;48.020;7.822;2023-04-08T11:52:39;11.53;;;7.30;;
2564;SDS011;1292;48.020;7.822;2023-04-08T11:55:09;9.50;;;7.00;;
2564;SDS011;1292;48.020;7.822;2023-04-08T11:57:37;8.70;;;7.30;;
2564;SDS011;1292;48.020;7.822;2023-04-08T12:00:06;7.13;;;6.43;;
2564;SDS011;1292;48.020;7.822;2023-04-08T12:02:33;7.90;;;6.67;;
2564;SDS011;1292;48.020;7.822;2023-04-08T12:05:00;7.37;;;6.23;;
2564;SDS011;1292;48.020;7.822;2023-04-08T12:07:27;7.20;;;6.07;;
2564;SDS011;1292;48.020;7.822;2023-04-08T12:09:54;6.13;;;5.53;;
2564;SDS011;1292;48.020;7.822;2023-04-08T12:12:21;7.43;;;6.20;;
2564;SDS011;1292;48.020;7.822;2023-04-08T12:14:48;6.37;;;5.53;;
2564;SDS011;1292;48.020;7.822;2023-04-08T12:17:16;7.30;;;6.60;;
2564;SDS011;1292;48.020;7.822;2023-04-08T12:19:43;7.07;;;6.37;;
2564;SDS011;1292;48.020;7.822;2023-04-08T12:22:10;6.70;;;6.00;;
2564;SDS011;1292;48.020;7.822;2023-04-08T12:24:37;6.73;;;6.10;;
2564;SDS011;1292;48.020;7.822;2023-04-08T12:27:04;6.20;;;5.37;;
2564;SDS011;1292;48.020;7.822;2023-04-08T12:29:31;5.70;;;5.00;;
2564;SDS011;1292;48.020;7.822;2023-04-08T12:31:58;9.83;;;5.40;;
2564;SDS011;1292;48.020;7.822;2023-04-08T12:34:27;6.50;;;5.40;;
2564;SDS011;1292;48.020;7.822;2023-04-08T12:36:54;5.60;;;5.10;;
2564;SDS011;1292;48.020;7.822;2023-04-08T12:39:21;6.80;;;4.80;;
2564;SDS011;1292;48.020;7.822;2023-04-08T12:41:48;5.10;;;4.60;;
2564;SDS011;1292;48.020;7.822;2023-04-08T12:44:14;11.80;;;4.23;;
2564;SDS011;1292;48.020;7.822;2023-04-08T12:46:41;9.20;;;3.50;;
2564;SDS011;1292;48.020;7.822;2023-04-08T12:49:08;4.63;;;4.20;;
2564;SDS011;1292;48.020;7.822;2023-04-08T12:51:37;4.00;;;3.70;;
2564;SDS011;1292;48.020;7.822;2023-04-08T12:54:04;2.53;;;2.33;;
2564;SDS011;1292;48.020;7.822;2023-04-08T12:56:32;4.23;;;3.40;;
2564;SDS011;1292;48.020;7.822;2023-04-08T12:58:59;3.60;;;3.27;;
2564;SDS011;1292;48.020;7.822;2023-04-08T13:01:26;5.10;;;4.60;;
2564;SDS011;1292;48.020;7.822;2023-04-08T13:03:52;4.63;;;4.20;;
2564;SDS011;1292;48.020;7.822;2023-04-08T13:06:19;4.20;;;3.80;;
2564;SDS011;1292;48.020;7.822;2023-04-08T13:08:47;4.63;;;4.10;;
2564;SDS011;1292;48.020;7.822;2023-04-08T13:11:14;5.77;;;4.67;;
2564;SDS011;1292;48.020;7.822;2023-04-08T13:13:41;4.40;;;4.00;;
2564;SDS011;1292;48.020;7.822;2023-04-08T13:16:08;4.43;;;3.80;;
2564;SDS011;1292;48.020;7.822;2023-04-08T13:18:34;4.80;;;4.40;;
2564;SDS011;1292;48.020;7.822;2023-04-08T13:21:01;4.17;;;3.70;;
2564;SDS011;1292;48.020;7.822;2023-04-08T13:23:28;4.60;;;4.20;;
2564;SDS011;1292;48.020;7.822;2023-04-08T13:25:56;4.53;;;4.13;;
2564;SDS011;1292;48.020;7.822;2023-04-08T13:28:23;4.20;;;3.40;;
2564;SDS011;1292;48.020;7.822;2023-04-08T13:30:50;4.50;;;4.10;;
2564;SDS011;1292;48.020;7.822;2023-04-08T13:33:17;5.10;;;4.70;;
2564;SDS011;1292;48.020;7.822;2023-04-08T13:35:44;5.00;;;4.60;;
2564;SDS011;1292;48.020;7.822;2023-04-08T13:38:11;4.53;;;4.07;;
2564;SDS011;1292;48.020;7.822;2023-04-08T13:40:38;4.00;;;3.70;;
2564;SDS011;1292;48.020;7.822;2023-04-08T13:43:06;5.67;;;4.57;;
2564;SDS011;1292;48.020;7.822;2023-04-08T13:45:33;4.77;;;4.37;;
2564;SDS011;1292;48.020;7.822;2023-04-08T13:48:00;4.00;;;3.67;;
2564;SDS011;1292;48.020;7.822;2023-04-08T13:50:27;3.97;;;3.60;;
2564;SDS011;1292;48.020;7.822;2023-04-08T13:52:54;3.33;;;3.03;;
2564;SDS011;1292;48.020;7.822;2023-04-08T13:55:21;3.40;;;3.10;;
2564;SDS011;1292;48.020;7.822;2023-04-08T13:57:48;4.30;;;3.90;;
2564;SDS011;1292;48.020;7.822;2023-04-08T14:00:16;4.43;;;4.07;;
2564;SDS011;1292;48.020;7.822;2023-04-08T14:02:43;6.07;;;4.60;;
2564;SDS011;1292;48.020;7.822;2023-04-08T14:05:10;5.07;;;4.57;;
2564;SDS011;1292;48.020;7.822;2023-04-08T14:07:37;5.83;;;5.23;;
2564;SDS011;1292;48.020;7.822;2023-04-08T14:10:04;5.07;;;4.60;;
2564;SDS011;1292;48.020;7.822;2023-04-08T14:12:31;6.30;;;5.70;;
2564;SDS011;1292;48.020;7.822;2023-04-08T14:14:58;6.23;;;5.63;;
2564;SDS011;1292;48.020;7.822;2023-04-08T14:17:28;6.90;;;6.27;;
2564;SDS011;1292;48.020;7.822;2023-04-08T14:19:54;7.50;;;6.60;;
2564;SDS011;1292;48.020;7.822;2023-04-08T14:22:23;6.97;;;5.77;;
2564;SDS011;1292;48.020;7.822;2023-04-08T14:24:50;7.93;;;7.20;;
2564;SDS011;1292;48.020;7.822;2023-04-08T14:27:17;10.83;;;6.93;;
2564;SDS011;1292;48.020;7.822;2023-04-08T14:29:44;7.50;;;6.80;;
2564;SDS011;1292;48.020;7.822;2023-04-08T14:32:10;11.30;;;7.80;;
2564;SDS011;1292;48.020;7.822;2023-04-08T14:34:39;9.03;;;6.90;;
2564;SDS011;1292;48.020;7.822;2023-04-08T14:37:06;11.33;;;8.63;;
2564;SDS011;1292;48.020;7.822;2023-04-08T14:39:32;7.83;;;7.13;;
2564;SDS011;1292;48.020;7.822;2023-04-08T14:41:59;8.10;;;6.57;;
2564;SDS011;1292;48.020;7.822;2023-04-08T14:44:27;11.53;;;9.40;;
2564;SDS011;1292;48.020;7.822;2023-04-08T14:46:53;10.53;;;8.03;;
2564;SDS011;1292;48.020;7.822;2023-04-08T14:49:21;8.27;;;7.47;;
2564;SDS011;1292;48.020;7.822;2023-04-08T14:51:49;8.00;;;7.27;;
2564;SDS011;1292;48.020;7.822;2023-04-08T14:54:15;7.33;;;6.57;;
2564;SDS011;1292;48.020;7.822;2023-04-08T14:56:43;8.13;;;6.80;;
2564;SDS011;1292;48.020;7.822;2023-04-08T14:59:10;8.43;;;7.53;;
2564;SDS011;1292;48.020;7.822;2023-04-08T15:01:37;7.87;;;7.07;;
2564;SDS011;1292;48.020;7.822;2023-04-08T15:04:03;6.70;;;5.93;;
2564;SDS011;1292;48.020;7.822;2023-04-08T15:06:30;6.50;;;5.90;;
2564;SDS011;1292;48.020;7.822;2023-04-08T15:08:59;8.43;;;7.60;;
2564;SDS011;1292;48.020;7.822;2023-04-08T15:11:26;6.40;;;5.60;;
2564;SDS011;1292;48.020;7.822;2023-04-08T15:13:52;8.03;;;7.33;;
2564;SDS011;1292;48.020;7.822;2023-04-08T15:16:19;7.50;;;6.77;;
2564;SDS011;1292;48.020;7.822;2023-04-08T15:18:46;8.07;;;7.27;;
2564;SDS011;1292;48.020;7.822;2023-04-08T15:21:13;9.00;;;7.13;;
2564;SDS011;1292;48.020;7.822;2023-04-08T15:23:40;6.73;;;6.03;;
2564;SDS011;1292;48.020;7.822;2023-04-08T15:26:08;8.63;;;7.17;;
2564;SDS011;1292;48.020;7.822;2023-04-08T15:28:35;7.07;;;6.17;;
2564;SDS011;1292;48.020;7.822;2023-04-08T15:31:04;8.53;;;6.80;;
2564;SDS011;1292;48.020;7.822;2023-04-08T15:33:31;6.87;;;6.03;;
2564;SDS011;1292;48.020;7.822;2023-04-08T15:35:58;7.40;;;6.70;;
2564;SDS011;1292;48.020;7.822;2023-04-08T15:38:27;7.77;;;6.27;;
2564;SDS011;1292;48.020;7.822;2023-04-08T15:40:54;5.40;;;4.90;;
2564;SDS011;1292;48.020;7.822;2023-04-08T15:43:22;8.20;;;6.93;;
2564;SDS011;1292;48.020;7.822;2023-04-08T15:45:49;7.13;;;6.40;;
2564;SDS011;1292;48.020;7.822;2023-04-08T15:48:16;6.60;;;6.00;;
2564;SDS011;1292;48.020;7.822;2023-04-08T15:50:43;9.90;;;8.90;;
2564;SDS011;1292;48.020;7.822;2023-04-08T15:53:10;9.33;;;6.80;;
2564;SDS011;1292;48.020;7.822;2023-04-08T15:55:37;13.30;;;8.87;;
2564;SDS011;1292;48.020;7.822;2023-04-08T15:58:04;11.23;;;8.40;;
2564;SDS011;1292;48.020;7.822;2023-04-08T16:00:33;7.80;;;7.10;;
2564;SDS011;1292;48.020;7.822;2023-04-08T16:03:00;7.53;;;6.83;;
2564;SDS011;1292;48.020;7.822;2023-04-08T16:05:29;9.27;;;7.50;;
2564;SDS011;1292;48.020;7.822;2023-04-08T16:07:58;17.07;;;7.43;;
2564;SDS011;1292;48.020;7.822;2023-04-08T16:10:25;14.43;;;6.30;;
2564;SDS011;1292;48.020;7.822;2023-04-08T16:12:51;6.73;;;6.00;;
2564;SDS011;1292;48.020;7.822;2023-04-08T16:15:18;7.10;;;6.40;;
2564;SDS011;1292;48.020;7.822;2023-04-08T16:17:50;7.20;;;6.50;;
2564;SDS011;1292;48.020;7.822;2023-04-08T16:20:17;5.80;;;5.30;;
2564;SDS011;1292;48.020;7.822;2023-04-08T16:22:44;5.17;;;4.77;;
2564;SDS011;1292;48.020;7.822;2023-04-08T16:25:11;6.90;;;5.53;;
2564;SDS011;1292;48.020;7.822;2023-04-08T16:27:38;5.70;;;5.20;;
2564;SDS011;1292;48.020;7.822;2023-04-08T16:30:06;5.20;;;4.70;;
2564;SDS011;1292;48.020;7.822;2023-04-08T16:32:33;5.53;;;5.03;;
2564;SDS011;1292;48.020;7.822;2023-04-08T16:35:02;7.83;;;7.03;;
2564;SDS011;1292;48.020;7.822;2023-04-08T16:37:29;8.43;;;6.43;;
2564;SDS011;1292;48.020;7.822;2023-04-08T16:39:56;6.53;;;5.43;;
2564;SDS011;1292;48.020;7.822;2023-04-08T16:42:23;5.83;;;5.20;;
2564;SDS011;1292;48.020;7.822;2023-04-08T16:44:53;6.00;;;5.30;;
2564;SDS011;1292;48.020;7.822;2023-04-08T16:47:22;7.63;;;6.50;;
2564;SDS011;1292;48.020;7.822;2023-04-08T16:49:49;6.20;;;5.60;;
2564;SDS011;1292;48.020;7.822;2023-04-08T16:52:17;6.07;;;5.37;;
2564;SDS011;1292;48.020;7.822;2023-04-08T16:54:44;6.00;;;5.47;;
2564;SDS011;1292;48.020;7.822;2023-04-08T16:57:11;5.23;;;4.73;;
2564;SDS011;1292;48.020;7.822;2023-04-08T16:59:38;5.73;;;5.23;;
2564;SDS011;1292;48.020;7.822;2023-04-08T17:02:06;6.97;;;6.37;;
2564;SDS011;1292;48.020;7.822;2023-04-08T17:04:33;6.70;;;6.10;;
2564;SDS011;1292;48.020;7.822;2023-04-08T17:07:00;5.33;;;4.87;;
2564;SDS011;1292;48.020;7.822;2023-04-08T17:09:28;10.57;;;5.70;;
2564;SDS011;1292;48.020;7.822;2023-04-08T17:11:55;8.53;;;7.73;;
2564;SDS011;1292;48.020;7.822;2023-04-08T17:14:22;7.20;;;6.53;;
2564;SDS011;1292;48.020;7.822;2023-04-08T17:16:49;6.43;;;5.93;;
2564;SDS011;1292;48.020;7.822;2023-04-08T17:19:16;5.40;;;4.90;;
2564;SDS011;1292;48.020;7.822;2023-04-08T17:21:42;7.10;;;4.90;;
2564;SDS011;1292;48.020;7.822;2023-04-08T17:24:09;6.90;;;6.20;;
2564;SDS011;1292;48.020;7.822;2023-04-08T17:26:37;5.57;;;5.07;;
2564;SDS011;1292;48.020;7.822;2023-04-08T17:29:05;6.13;;;5.53;;
2564;SDS011;1292;48.020;7.822;2023-04-08T17:31:32;6.00;;;5.50;;
2564;SDS011;1292;48.020;7.822;2023-04-08T17:34:00;7.47;;;6.80;;
2564;SDS011;1292;48.020;7.822;2023-04-08T17:36:27;7.00;;;6.33;;
2564;SDS011;1292;48.020;7.822;2023-04-08T17:38:53;7.13;;;6.53;;
2564;SDS011;1292;48.020;7.822;2023-04-08T17:41:21;6.83;;;6.23;;
2564;SDS011;1292;48.020;7.822;2023-04-08T17:43:49;6.67;;;6.07;;
2564;SDS011;1292;48.020;7.822;2023-04-08T17:46:16;8.27;;;6.87;;
2564;SDS011;1292;48.020;7.822;2023-04-08T17:48:43;6.80;;;6.13;;
2564;SDS011;1292;48.020;7.822;2023-04-08T17:51:10;6.67;;;6.17;;
2564;SDS011;1292;48.020;7.822;2023-04-08T17:53:37;7.47;;;6.67;;
2564;SDS011;1292;48.020;7.822;2023-04-08T17:56:04;8.47;;;7.70;;
2564;SDS011;1292;48.020;7.822;2023-04-08T17:58:31;6.27;;;5.73;;
2564;SDS011;1292;48.020;7.822;2023-04-08T18:00:59;8.53;;;7.40;;
2564;SDS011;1292;48.020;7.822;2023-04-08T18:03:26;8.33;;;7.30;;
2564;SDS011;1292;48.020;7.822;2023-04-08T18:05:53;6.93;;;6.30;;
2564;SDS011;1292;48.020;7.822;2023-04-08T18:08:20;7.40;;;6.77;;
2564;SDS011;1292;48.020;7.822;2023-04-08T18:10:46;7.03;;;6.33;;
2564;SDS011;1292;48.020;7.822;2023-04-08T18:13:13;8.33;;;7.43;;
2564;SDS011;1292;48.020;7.822;2023-04-08T18:15:40;11.20;;;10.13;;
2564;SDS011;1292;48.020;7.822;2023-04-08T18:18:08;10.57;;;9.10;;
2564;SDS011;1292;48.020;7.822;2023-04-08T18:20:35;10.13;;;9.13;;
2564;SDS011;1292;48.020;7.822;2023-04-08T18:23:02;8.97;;;8.13;;
2564;SDS011;1292;48.020;7.822;2023-04-08T18:25:29;7.17;;;6.50;;
2564;SDS011;1292;48.020;7.822;2023-04-08T18:27:56;7.40;;;6.80;;
2564;SDS011;1292;48.020;7.822;2023-04-08T18:30:24;7.37;;;6.77;;
2564;SDS011;1292;48.020;7.822;2023-04-08T18:32:51;7.00;;;6.30;;
2564;SDS011;1292;48.020;7.822;2023-04-08T18:35:19;6.87;;;6.17;;
2564;SDS011;1292;48.020;7.822;2023-04-08T18:37:46;6.60;;;5.90;;
2564;SDS011;1292;48.020;7.822;2023-04-08T18:40:13;10.60;;;7.53;;
2564;SDS011;1292;48.020;7.822;2023-04-08T18:42:39;7.50;;;6.83;;
2564;SDS011;1292;48.020;7.822;2023-04-08T18:45:06;9.60;;;7.93;;
2564;SDS011;1292;48.020;7.822;2023-04-08T18:47:33;8.23;;;7.63;;
2564;SDS011;1292;48.020;7.822;2023-04-08T18:50:00;10.63;;;6.97;;
2564;SDS011;1292;48.020;7.822;2023-04-08T18:52:28;7.50;;;6.73;;
2564;SDS011;1292;48.020;7.822;2023-04-08T18:54:56;6.60;;;5.90;;
2564;SDS011;1292;48.020;7.822;2023-04-08T18:57:24;8.10;;;7.40;;
2564;SDS011;1292;48.020;7.822;2023-04-08T18:59:51;7.00;;;6.40;;
2564;SDS011;1292;48.020;7.822;2023-04-08T19:02:17;7.40;;;6.60;;
2564;SDS011;1292;48.020;7.822;2023-04-08T19:04:44;7.50;;;6.70;;
2564;SDS011;1292;48.020;7.822;2023-04-08T19:07:11;7.70;;;7.10;;
2564;SDS011;1292;48.020;7.822;2023-04-08T19:09:39;7.27;;;6.60;;
2564;SDS011;1292;48.020;7.822;2023-04-08T19:12:06;7.67;;;6.97;;
2564;SDS011;1292;48.020;7.822;2023-04-08T19:14:32;9.00;;;8.10;;
2564;SDS011;1292;48.020;7.822;2023-04-08T19:16:59;8.70;;;7.90;;
2564;SDS011;1292;48.020;7.822;2023-04-08T19:19:26;8.03;;;7.33;;
2564;SDS011;1292;48.020;7.822;2023-04-08T19:21:53;9.83;;;8.60;;
2564;SDS011;1292;48.020;7.822;2023-04-08T19:24:19;9.27;;;8.33;;
2564;SDS011;1292;48.020;7.822;2023-04-08T19:26:48;10.03;;;8.63;;
2564;SDS011;1292;48.020;7.822;2023-04-08T19:29:17;8.93;;;8.07;;
2564;SDS011;1292;48.020;7.822;2023-04-08T19:31:47;8.87;;;8.07;;
2564;SDS011;1292;48.020;7.822;2023-04-08T19:34:13;9.07;;;8.23;;
2564;SDS011;1292;48.020;7.822;2023-04-08T19:36:40;9.97;;;9.07;;
2564;SDS011;1292;48.020;7.822;2023-04-08T19:39:07;14.83;;;13.40;;
2564;SDS011;1292;48.020;7.822;2023-04-08T19:41:34;12.33;;;11.20;;
2564;SDS011;1292;48.020;7.822;2023-04-08T19:44:02;9.20;;;8.33;;
2564;SDS011;1292;48.020;7.822;2023-04-08T19:46:29;9.87;;;8.93;;
2564;SDS011;1292;48.020;7.822;2023-04-08T19:48:56;11.20;;;8.63;;
2564;SDS011;1292;48.020;7.822;2023-04-08T19:51:23;10.03;;;9.00;;
2564;SDS011;1292;48.020;7.822;2023-04-08T19:53:51;9.60;;;8.60;;
2564;SDS011;1292;48.020;7.822;2023-04-08T19:56:18;9.67;;;8.77;;
2564;SDS011;1292;48.020;7.822;2023-04-08T19:58:45;9.20;;;8.30;;
2564;SDS011;1292;48.020;7.822;2023-04-08T20:01:14;9.40;;;8.13;;
2564;SDS011;1292;48.020;7.822;2023-04-08T20:03:40;18.30;;;16.40;;
2564;SDS011;1292;48.020;7.822;2023-04-08T20:06:13;10.57;;;9.50;;
2564;SDS011;1292;48.020;7.822;2023-04-08T20:08:40;9.27;;;8.30;;
2564;SDS011;1292;48.020;7.822;2023-04-08T20:11:07;8.40;;;7.50;;
2564;SDS011;1292;48.020;7.822;2023-04-08T20:13:34;8.30;;;7.50;;
2564;SDS011;1292;48.020;7.822;2023-04-08T20:16:01;9.23;;;8.33;;
2564;SDS011;1292;48.020;7.822;2023-04-08T20:18:29;9.40;;;8.60;;
2564;SDS011;1292;48.020;7.822;2023-04-08T20:20:56;10.27;;;9.27;;
2564;SDS011;1292;48.020;7.822;2023-04-08T20:23:23;9.93;;;8.93;;
2564;SDS011;1292;48.020;7.822;2023-04-08T20:25:50;10.00;;;9.00;;
2564;SDS011;1292;48.020;7.822;2023-04-08T20:28:17;9.10;;;7.90;;
2564;SDS011;1292;48.020;7.822;2023-04-08T20:30:44;9.30;;;8.37;;
2564;SDS011;1292;48.020;7.822;2023-04-08T20:33:12;10.10;;;9.30;;
2564;SDS011;1292;48.020;7.822;2023-04-08T20:35:40;9.07;;;8.17;;
2564;SDS011;1292;48.020;7.822;2023-04-08T20:38:07;11.87;;;9.80;;
2564;SDS011;1292;48.020;7.822;2023-04-08T20:40:33;12.23;;;10.77;;
2564;SDS011;1292;48.020;7.822;2023-04-08T20:43:00;11.17;;;10.07;;
2564;SDS011;1292;48.020;7.822;2023-04-08T20:45:27;9.97;;;9.00;;
2564;SDS011;1292;48.020;7.822;2023-04-08T20:47:54;8.37;;;7.63;;
2564;SDS011;1292;48.020;7.822;2023-04-08T20:50:21;9.00;;;8.20;;
2564;SDS011;1292;48.020;7.822;2023-04-08T20:52:50;9.43;;;8.60;;
2564;SDS011;1292;48.020;7.822;2023-04-08T20:55:16;9.10;;;8.20;;
2564;SDS011;1292;48.020;7.822;2023-04-08T20:57:43;10.03;;;8.93;;
